Thunder radar more information blitzortung!


Radar de pluja more information rain snow radar


Visita la nostra xarxa de llocs de meteo:

Template documentation
and downloads

And another site



No particular awareness of the weather is required.    There are no Weather-warnings

Pagina Historial Weather Underground text

Diari Resum Novembre 14, 2017 Unitats:  Mètric    Imperial   Tant
« Previous Dia
SegĂźent Dia »
Diari Setmana Mensual Anual Personalitzada
  Maxima: Minima: Media:
Temperatura: 15.7 °C 2.2 °C 8.8 °C
Punt de rosada: -0.6 °C -10.9 °C -5.4 °C
Humitat: 50 % 25 % 37 %
Wind Speed: 11.1 km/h 0.0 km/h 3.4 km/h
RĂ fegues de vent: 16.1 km/h - -
Vent:- - SSW
Pression baro: 1020.9 hPa 1014.8 hPa -
Precipitacions: 0.0 mm    
Historical Graphs
 
 
Dades de taula per Novembre 14, 2017
Temps Temperatura Punt de rosada Pression baro Vent Wind Speed RĂ fegues de vent Humitat Rainfall Rate (Hourly)
00:00 8.1 °C -10.8 °C 1015.8 hPa WSW 4.8 km/h 9.7 km/h 25 % 0.0 mm
00:05 8.0 °C -10.9 °C 1014.8 hPa WSW 8.0 km/h 16.1 km/h 25 % 0.0 mm
00:10 8.0 °C -10.8 °C 1014.8 hPa West 4.8 km/h 12.9 km/h 25 % 0.0 mm
00:20 4.7 °C -10.6 °C 1015.8 hPa WSW 1.6 km/h 4.8 km/h 32 % 0.0 mm
00:30 4.5 °C -10.4 °C 1015.8 hPa West 1.6 km/h 4.8 km/h 33 % 0.0 mm
00:40 4.3 °C -10.6 °C 1015.8 hPa West 1.6 km/h 3.2 km/h 33 % 0.0 mm
00:50 4.1 °C -10.8 °C 1015.8 hPa NW 1.6 km/h 1.6 km/h 33 % 0.0 mm
01:00 3.9 °C -10.9 °C 1016.8 hPa Calm   1.6 km/h 33 % 0.0 mm
01:10 3.8 °C -10.7 °C 1016.8 hPa NNW 1.6 km/h 1.6 km/h 34 % 0.0 mm
01:20 3.7 °C -10.7 °C 1016.8 hPa Calm   1.6 km/h 34 % 0.0 mm
01:30 3.5 °C -10.9 °C 1017.8 hPa Calm   1.6 km/h 34 % 0.0 mm
01:40 3.4 °C -10.7 °C 1017.8 hPa Calm   1.6 km/h 35 % 0.0 mm
01:50 3.2 °C -10.8 °C 1017.8 hPa West 1.6 km/h 3.2 km/h 35 % 0.0 mm
02:00 3.5 °C -10.2 °C 1017.8 hPa West 1.6 km/h 1.6 km/h 36 % 0.0 mm
02:10 3.9 °C -9.8 °C 1017.8 hPa North 1.6 km/h 3.2 km/h 36 % 0.0 mm
02:20 4.2 °C -9.2 °C 1017.8 hPa WNW 1.6 km/h 1.6 km/h 37 % 0.0 mm
02:30 4.8 °C -8.7 °C 1017.8 hPa West 1.6 km/h 3.2 km/h 37 % 0.0 mm
02:40 5.1 °C -8.4 °C 1017.8 hPa WNW 1.6 km/h 3.2 km/h 37 % 0.0 mm
03:00 6.1 °C -7.2 °C 1017.8 hPa NW 1.6 km/h 4.8 km/h 38 % 0.0 mm
03:10 6.5 °C -6.8 °C 1018.8 hPa NW 3.2 km/h 4.8 km/h 38 % 0.0 mm
03:20 6.7 °C -6.7 °C 1018.8 hPa NE 3.2 km/h 3.2 km/h 38 % 0.0 mm
03:30 6.9 °C -6.4 °C 1018.8 hPa NE 3.2 km/h 8.0 km/h 38 % 0.0 mm
09:37 7.3 °C -6.1 °C 1018.8 hPa ESE 3.7 km/h 3.7 km/h 38 % 0.0 mm
09:38 7.4 °C -6.0 °C 1018.8 hPa East 1.9 km/h   38 % 0.0 mm
09:43 7.4 °C -6.0 °C 1018.8 hPa ENE 5.6 km/h 5.6 km/h 38 % 0.0 mm
09:48 7.7 °C -5.7 °C 1018.8 hPa West 3.7 km/h 3.7 km/h 38 % 0.0 mm
09:53 7.8 °C -5.7 °C 1019.9 hPa NNE 7.4 km/h 7.4 km/h 38 % 0.0 mm
09:58 7.4 °C -6.4 °C 1019.9 hPa ENE 7.4 km/h 7.4 km/h 37 % 0.0 mm
10:03 7.9 °C -5.6 °C 1019.9 hPa NNE 6.1 km/h 6.1 km/h 38 % 0.0 mm
10:08 8.2 °C -5.3 °C 1018.8 hPa ENE 3.7 km/h 3.7 km/h 38 % 0.0 mm
10:13 8.2 °C -5.7 °C 1018.8 hPa NNE 5.6 km/h 5.6 km/h 37 % 0.0 mm
10:18 8.3 °C -5.6 °C 1018.8 hPa WNW 5.6 km/h 5.6 km/h 37 % 0.0 mm
10:23 8.6 °C -4.9 °C 1018.8 hPa North 7.4 km/h 7.4 km/h 38 % 0.0 mm
10:28 8.7 °C -5.2 °C 1018.8 hPa NW 3.7 km/h 3.7 km/h 37 % 0.0 mm
10:33 8.7 °C -5.2 °C 1018.8 hPa NNE 9.3 km/h 9.3 km/h 37 % 0.0 mm
10:38 8.5 °C -5.4 °C 1018.8 hPa NNE 5.6 km/h 5.6 km/h 37 % 0.0 mm
10:43 9.1 °C -4.8 °C 1018.8 hPa SSE 3.7 km/h   37 % 0.0 mm
10:48 9.2 °C -4.8 °C 1018.8 hPa NE 10.0 km/h 10.0 km/h 37 % 0.0 mm
10:53 9.0 °C -4.9 °C 1019.9 hPa NNE 9.3 km/h 9.3 km/h 37 % 0.0 mm
10:58 9.3 °C -4.7 °C 1019.9 hPa NNE 6.4 km/h 6.4 km/h 37 % 0.0 mm
11:03 9.3 °C -4.7 °C 1019.9 hPa North 7.4 km/h 7.4 km/h 37 % 0.0 mm
11:08 9.5 °C -4.5 °C 1019.9 hPa NE 7.4 km/h 7.4 km/h 37 % 0.0 mm
11:13 10.0 °C -4.1 °C 1019.9 hPa ESE 3.7 km/h 3.7 km/h 37 % 0.0 mm
11:18 10.3 °C -3.8 °C 1019.9 hPa ENE 5.6 km/h 5.6 km/h 37 % 0.0 mm
11:23 9.9 °C -4.5 °C 1019.9 hPa NE 9.3 km/h 9.3 km/h 36 % 0.0 mm
11:28 9.9 °C -4.5 °C 1019.9 hPa NNE 5.6 km/h 5.6 km/h 36 % 0.0 mm
11:33 10.4 °C -3.7 °C 1019.9 hPa WNW 3.7 km/h 3.7 km/h 37 % 0.0 mm
11:38 10.7 °C -3.8 °C 1019.9 hPa East 3.7 km/h 3.7 km/h 36 % 0.0 mm
11:43 10.9 °C -3.6 °C 1019.9 hPa NE 3.9 km/h 3.9 km/h 36 % 0.0 mm
11:53 11.0 °C -3.5 °C 1018.8 hPa SW 3.7 km/h 3.7 km/h 36 % 0.0 mm
11:58 11.3 °C -3.3 °C 1018.8 hPa ENE 3.7 km/h 3.7 km/h 36 % 0.0 mm
12:03 11.6 °C -3.0 °C 1018.8 hPa North 5.6 km/h 5.6 km/h 36 % 0.0 mm
12:08 11.4 °C -3.2 °C 1018.8 hPa East 7.9 km/h 7.9 km/h 36 % 0.0 mm
12:13 11.4 °C -3.2 °C 1018.8 hPa NE 7.4 km/h 7.4 km/h 36 % 0.0 mm
12:23 11.7 °C -3.3 °C 1018.8 hPa East 3.7 km/h 3.7 km/h 35 % 0.0 mm
12:28 12.0 °C -3.0 °C 1018.8 hPa SSW 3.7 km/h 3.7 km/h 35 % 0.0 mm
12:33 12.1 °C -2.6 °C 1018.8 hPa NE 5.6 km/h 5.6 km/h 36 % 0.0 mm
12:43 12.2 °C -2.8 °C 1017.8 hPa NE 5.6 km/h 5.6 km/h 35 % 0.0 mm
12:48 12.6 °C -2.5 °C 1017.8 hPa ENE 4.7 km/h 4.7 km/h 35 % 0.0 mm
12:53 12.2 °C -2.8 °C 1017.8 hPa ENE 6.9 km/h 6.9 km/h 35 % 0.0 mm
12:58 12.3 °C -2.7 °C 1017.8 hPa East 5.6 km/h 5.6 km/h 35 % 0.0 mm
13:03 12.6 °C -2.5 °C 1017.8 hPa ESE 3.7 km/h 3.7 km/h 35 % 0.0 mm
13:08 12.8 °C -2.3 °C 1017.8 hPa ENE 3.9 km/h 3.9 km/h 35 % 0.0 mm
13:13 13.3 °C -1.8 °C 1017.8 hPa SE 3.9 km/h 3.9 km/h 35 % 0.0 mm
13:18 13.4 °C -1.4 °C 1017.8 hPa West 5.6 km/h 5.6 km/h 36 % 0.0 mm
13:23 13.7 °C -1.5 °C 1017.8 hPa SW 7.4 km/h 7.4 km/h 35 % 0.0 mm
13:28 13.6 °C -2.0 °C 1017.8 hPa East 5.6 km/h 5.6 km/h 34 % 0.0 mm
13:33 13.7 °C -1.5 °C 1017.8 hPa NW 4.7 km/h 4.7 km/h 35 % 0.0 mm
13:38 13.6 °C -2.0 °C 1018.8 hPa NW 3.7 km/h 3.7 km/h 34 % 0.0 mm
13:43 13.5 °C -2.1 °C 1018.8 hPa NW 4.2 km/h 4.2 km/h 34 % 0.0 mm
13:48 13.6 °C -2.0 °C 1018.8 hPa SSE 3.7 km/h 3.7 km/h 34 % 0.0 mm
13:53 13.6 °C -2.0 °C 1017.8 hPa WSW 5.6 km/h 5.6 km/h 34 % 0.0 mm
13:58 13.6 °C -2.0 °C 1017.8 hPa SW 3.7 km/h 3.7 km/h 34 % 0.0 mm
14:03 13.5 °C -2.1 °C 1017.8 hPa NNE 3.7 km/h 3.7 km/h 34 % 0.0 mm
14:13 13.5 °C -2.5 °C 1017.8 hPa ESE 7.4 km/h 7.4 km/h 33 % 0.0 mm
14:18 13.5 °C -2.5 °C 1017.8 hPa ESE 9.3 km/h 9.3 km/h 33 % 0.0 mm
14:23 13.7 °C -2.3 °C 1017.8 hPa SSW 5.6 km/h 5.6 km/h 33 % 0.0 mm
14:28 13.8 °C -2.2 °C 1017.8 hPa West 3.9 km/h 3.9 km/h 33 % 0.0 mm
14:33 14.2 °C -1.9 °C 1017.8 hPa SW 7.4 km/h 7.4 km/h 33 % 0.0 mm
14:38 14.0 °C -2.1 °C 1017.8 hPa NE 9.3 km/h 9.5 km/h 33 % 0.0 mm
14:43 14.0 °C -2.1 °C 1017.8 hPa ESE 7.4 km/h 7.4 km/h 33 % 0.0 mm
14:45 14.3 °C -1.4 °C 1017.8 hPa NW 5.6 km/h 5.6 km/h 34 % 0.0 mm
14:50 14.6 °C -1.1 °C 1017.8 hPa WNW 11.1 km/h 11.1 km/h 34 % 0.0 mm
14:55 14.5 °C -1.6 °C 1017.8 hPa WSW 5.6 km/h 5.6 km/h 33 % 0.0 mm
15:00 14.6 °C -1.5 °C 1017.8 hPa SW 3.7 km/h 3.7 km/h 33 % 0.0 mm
15:05 14.8 °C -1.3 °C 1017.8 hPa WNW 5.6 km/h 5.6 km/h 33 % 0.0 mm
15:10 14.9 °C -1.3 °C 1017.8 hPa SW 7.4 km/h 7.4 km/h 33 % 0.0 mm
15:15 15.0 °C -1.2 °C 1017.8 hPa SW 5.6 km/h 5.6 km/h 33 % 0.0 mm
15:20 15.4 °C -0.8 °C 1017.8 hPa SSE 5.6 km/h 5.6 km/h 33 % 0.0 mm
15:25 15.3 °C -0.9 °C 1017.8 hPa SW 3.7 km/h 3.7 km/h 33 % 0.0 mm
15:30 15.5 °C -0.7 °C 1017.8 hPa WSW 5.6 km/h 5.6 km/h 33 % 0.0 mm
15:35 15.6 °C -0.6 °C 1017.8 hPa West 5.6 km/h 5.6 km/h 33 % 0.0 mm
15:40 15.7 °C -0.6 °C 1017.8 hPa SSE 5.6 km/h 5.6 km/h 33 % 0.0 mm
15:45 15.6 °C -0.6 °C 1017.8 hPa WSW 5.6 km/h 5.6 km/h 33 % 0.0 mm
15:50 15.4 °C -1.2 °C 1017.8 hPa SW 5.6 km/h 5.6 km/h 32 % 0.0 mm
15:55 15.4 °C -1.2 °C 1017.8 hPa WSW 3.7 km/h 3.7 km/h 32 % 0.0 mm
16:00 15.2 °C -1.4 °C 1017.8 hPa NW 7.4 km/h 7.4 km/h 32 % 0.0 mm
16:05 15.2 °C -1.4 °C 1017.8 hPa SW 7.4 km/h 7.4 km/h 32 % 0.0 mm
16:15 15.4 °C -1.2 °C 1017.8 hPa NW 3.7 km/h 3.7 km/h 32 % 0.0 mm
16:20 15.3 °C -1.3 °C 1017.8 hPa WSW 3.7 km/h 3.7 km/h 32 % 0.0 mm
16:25 15.2 °C -1.4 °C 1017.8 hPa NNE 5.6 km/h 5.6 km/h 32 % 0.0 mm
16:30 14.9 °C -1.7 °C 1017.8 hPa SSW 3.7 km/h 3.7 km/h 32 % 0.0 mm
16:35 14.8 °C -1.8 °C 1017.8 hPa West 3.7 km/h 3.7 km/h 32 % 0.0 mm
16:40 14.6 °C -1.9 °C 1017.8 hPa WSW 5.0 km/h 5.0 km/h 32 % 0.0 mm
16:45 14.4 °C -2.1 °C 1017.8 hPa WSW 3.7 km/h 3.7 km/h 32 % 0.0 mm
16:50 14.2 °C -2.3 °C 1017.8 hPa WNW 3.7 km/h 3.7 km/h 32 % 0.0 mm
16:55 13.9 °C -2.6 °C 1017.8 hPa SW 3.7 km/h   32 % 0.0 mm
17:00 13.8 °C -2.6 °C 1017.8 hPa NNW 2.3 km/h 2.3 km/h 32 % 0.0 mm
17:01 13.7 °C -2.7 °C 1017.8 hPa NNW 3.7 km/h 3.7 km/h 32 % 0.0 mm
17:06 13.6 °C -2.8 °C 1018.8 hPa West 7.4 km/h 7.4 km/h 32 % 0.0 mm
17:11 13.2 °C -3.2 °C 1018.8 hPa West 5.6 km/h 5.6 km/h 32 % 0.0 mm
17:16 12.9 °C -3.4 °C 1018.8 hPa WNW 3.7 km/h 3.7 km/h 32 % 0.0 mm
17:21 12.6 °C -3.7 °C 1018.8 hPa West 5.6 km/h 5.6 km/h 32 % 0.0 mm
17:26 12.3 °C -3.9 °C 1018.8 hPa West 1.9 km/h 1.9 km/h 32 % 0.0 mm
17:31 12.0 °C -4.2 °C 1018.8 hPa WSW 3.9 km/h 3.9 km/h 32 % 0.0 mm
17:36 11.8 °C -4.4 °C 1018.8 hPa NW 3.7 km/h 3.7 km/h 32 % 0.0 mm
17:41 11.6 °C -4.6 °C 1018.8 hPa WNW 3.7 km/h 3.7 km/h 32 % 0.0 mm
17:46 11.5 °C -4.7 °C 1018.8 hPa WNW 3.7 km/h 3.7 km/h 32 % 0.0 mm
17:51 11.3 °C -4.8 °C 1018.8 hPa WNW 1.9 km/h 1.9 km/h 32 % 0.0 mm
17:56 11.1 °C -5.0 °C 1018.8 hPa NNW 3.9 km/h 3.9 km/h 32 % 0.0 mm
18:01 11.0 °C -5.1 °C 1018.8 hPa West 3.7 km/h 3.7 km/h 32 % 0.0 mm
18:06 10.7 °C -5.3 °C 1018.8 hPa NE 3.7 km/h 3.7 km/h 32 % 0.0 mm
18:11 10.5 °C -5.5 °C 1018.8 hPa NE 3.7 km/h 3.7 km/h 32 % 0.0 mm
18:16 10.3 °C -5.7 °C 1018.8 hPa NNE 3.7 km/h 3.7 km/h 32 % 0.0 mm
18:21 10.1 °C -5.9 °C 1018.8 hPa NNW 3.7 km/h 3.7 km/h 32 % 0.0 mm
18:26 9.9 °C -6.1 °C 1018.8 hPa West 1.9 km/h 1.9 km/h 32 % 0.0 mm
18:31 9.8 °C -5.7 °C 1018.8 hPa WSW 3.7 km/h 3.7 km/h 33 % 0.0 mm
18:36 9.7 °C -5.8 °C 1019.9 hPa SSW 3.9 km/h   33 % 0.0 mm
18:41 9.8 °C -5.7 °C 1019.9 hPa WNW 1.9 km/h   33 % 0.0 mm
18:46 9.7 °C -5.8 °C 1019.9 hPa WNW 1.9 km/h   33 % 0.0 mm
18:51 9.5 °C -6.0 °C 1019.9 hPa WSW 3.7 km/h 3.7 km/h 33 % 0.0 mm
18:56 9.5 °C -6.0 °C 1019.9 hPa SSW 1.9 km/h   33 % 0.0 mm
19:01 9.6 °C -5.9 °C 1019.9 hPa SW 5.6 km/h 5.6 km/h 33 % 0.0 mm
19:05 3.9 °C -6.4 °C 1019.9 hPa Calm     47 % 0.0 mm
19:06 9.5 °C -6.0 °C 1019.9 hPa SW 4.2 km/h 4.2 km/h 33 % 0.0 mm
19:11 9.4 °C -6.1 °C 1019.9 hPa West 3.9 km/h 3.9 km/h 33 % 0.0 mm
19:15 3.8 °C -6.5 °C 1019.9 hPa Calm     47 % 0.0 mm
19:16 9.2 °C -6.3 °C 1019.9 hPa West 3.2 km/h 3.2 km/h 33 % 0.0 mm
19:17 9.1 °C -6.3 °C 1019.9 hPa West 3.7 km/h 3.7 km/h 33 % 0.0 mm
19:22 9.0 °C -6.4 °C 1019.9 hPa WNW 2.6 km/h 2.6 km/h 33 % 0.0 mm
19:25 3.6 °C -6.4 °C 1019.9 hPa WNW 1.6 km/h 1.6 km/h 48 % 0.0 mm
19:27 9.1 °C -6.3 °C 1019.9 hPa WNW 2.3 km/h 2.3 km/h 33 % 0.0 mm
19:32 9.0 °C -6.4 °C 1019.9 hPa WNW 1.9 km/h 1.9 km/h 33 % 0.0 mm
19:35 3.4 °C -6.6 °C 1019.9 hPa Calm   1.6 km/h 48 % 0.0 mm
19:37 9.0 °C -6.4 °C 1019.9 hPa WNW 1.9 km/h   33 % 0.0 mm
19:42 9.0 °C -6.4 °C 1019.9 hPa Calm     33 % 0.0 mm
19:45 3.6 °C -6.4 °C 1019.9 hPa West 1.6 km/h 3.2 km/h 48 % 0.0 mm
19:47 8.8 °C -6.6 °C 1019.9 hPa NNW 2.3 km/h 2.3 km/h 33 % 0.0 mm
19:52 8.7 °C -6.7 °C 1019.9 hPa WNW 1.9 km/h 1.9 km/h 33 % 0.0 mm
19:55 3.6 °C -6.4 °C 1019.9 hPa Calm   1.6 km/h 48 % 0.0 mm
19:57 8.8 °C -6.6 °C 1019.9 hPa Calm     33 % 0.0 mm
20:02 8.9 °C -6.6 °C 1019.9 hPa WNW 1.9 km/h   33 % 0.0 mm
20:05 3.6 °C -6.1 °C 1019.9 hPa NE 1.6 km/h 3.2 km/h 49 % 0.0 mm
20:07 8.9 °C -6.6 °C 1019.9 hPa Calm     33 % 0.0 mm
20:12 8.8 °C -6.2 °C 1019.9 hPa WNW 1.9 km/h 1.9 km/h 34 % 0.0 mm
20:15 3.7 °C -6.1 °C 1019.9 hPa NE 1.6 km/h 3.2 km/h 49 % 0.0 mm
20:17 8.5 °C -6.5 °C 1019.9 hPa Calm     34 % 0.0 mm
20:22 8.2 °C -6.8 °C 1019.9 hPa West 3.7 km/h 3.7 km/h 34 % 0.0 mm
20:25 3.5 °C -6.5 °C 1019.9 hPa Calm   1.6 km/h 48 % 0.0 mm
20:27 8.2 °C -6.8 °C 1019.9 hPa West 3.2 km/h   34 % 0.0 mm
20:32 8.0 °C -6.9 °C 1019.9 hPa Calm     34 % 0.0 mm
20:35 3.4 °C -6.6 °C 1019.9 hPa Calm   1.6 km/h 48 % 0.0 mm
20:37 7.8 °C -7.1 °C 1019.9 hPa Calm     34 % 0.0 mm
20:42 7.6 °C -7.3 °C 1019.9 hPa Calm     34 % 0.0 mm
20:45 3.4 °C -6.6 °C 1019.9 hPa WNW 1.6 km/h 3.2 km/h 48 % 0.0 mm
20:47 7.6 °C -7.3 °C 1019.9 hPa WSW 3.7 km/h 3.7 km/h 34 % 0.0 mm
20:52 7.6 °C -7.3 °C 1019.9 hPa Calm     34 % 0.0 mm
20:55 3.2 °C -6.8 °C 1019.9 hPa WNW 1.6 km/h 3.2 km/h 48 % 0.0 mm
20:57 7.5 °C -7.4 °C 1019.9 hPa NW 1.9 km/h 1.9 km/h 34 % 0.0 mm
21:02 7.3 °C -7.2 °C 1019.9 hPa North 3.7 km/h 3.7 km/h 35 % 0.0 mm
21:05 3.1 °C -6.9 °C 1019.9 hPa WNW 1.6 km/h 3.2 km/h 48 % 0.0 mm
21:07 7.2 °C -7.3 °C 1019.9 hPa NNW 2.3 km/h 2.3 km/h 35 % 0.0 mm
21:12 7.1 °C -7.3 °C 1019.9 hPa North 3.7 km/h 3.7 km/h 35 % 0.0 mm
21:15 2.8 °C -7.2 °C 1019.9 hPa West 1.6 km/h 3.2 km/h 48 % 0.0 mm
21:17 7.0 °C -7.4 °C 1019.9 hPa ENE 3.7 km/h 3.7 km/h 35 % 0.0 mm
21:22 7.0 °C -7.4 °C 1019.9 hPa Calm     35 % 0.0 mm
21:25 2.8 °C -6.9 °C 1019.9 hPa West 1.6 km/h 4.8 km/h 49 % 0.0 mm
21:27 6.9 °C -7.2 °C 1019.9 hPa ENE 2.3 km/h   36 % 0.0 mm
21:32 6.9 °C -7.2 °C 1019.9 hPa ENE 1.9 km/h 1.9 km/h 36 % 0.0 mm
21:35 2.9 °C -6.8 °C 1019.9 hPa West 1.6 km/h 3.2 km/h 49 % 0.0 mm
21:37 6.7 °C -7.3 °C 1019.9 hPa East 3.7 km/h 3.7 km/h 36 % 0.0 mm
21:42 6.7 °C -7.0 °C 1019.9 hPa East 1.9 km/h   37 % 0.0 mm
21:45 3.2 °C -6.5 °C 1019.9 hPa West 1.6 km/h 4.8 km/h 49 % 0.0 mm
21:47 6.6 °C -7.1 °C 1019.9 hPa NE 2.3 km/h 2.3 km/h 37 % 0.0 mm
21:52 6.4 °C -7.3 °C 1019.9 hPa NE 3.7 km/h 3.7 km/h 37 % 0.0 mm
21:55 3.2 °C -6.5 °C 1019.9 hPa Calm   4.8 km/h 49 % 0.0 mm
21:57 6.2 °C -7.4 °C 1019.9 hPa Calm     37 % 0.0 mm
22:02 6.1 °C -7.5 °C 1019.9 hPa Calm     37 % 0.0 mm
22:05 3.1 °C -6.3 °C 1019.9 hPa WNW 1.6 km/h 3.2 km/h 50 % 0.0 mm
22:07 6.0 °C -7.3 °C 1019.9 hPa NNE 1.9 km/h 1.9 km/h 38 % 0.0 mm
22:12 6.0 °C -7.3 °C 1019.9 hPa Calm     38 % 0.0 mm
22:15 3.1 °C -6.6 °C 1019.9 hPa West 1.6 km/h 3.2 km/h 49 % 0.0 mm
22:17 6.0 °C -7.3 °C 1019.9 hPa Calm     38 % 0.0 mm
22:22 5.9 °C -7.0 °C 1019.9 hPa ENE 2.6 km/h   39 % 0.0 mm
22:25 3.3 °C -6.4 °C 1018.8 hPa NW 1.6 km/h 3.2 km/h 49 % 0.0 mm
22:27 5.8 °C -7.1 °C 1019.9 hPa NE 2.3 km/h 2.3 km/h 39 % 0.0 mm
22:35 3.3 °C -6.4 °C 1018.8 hPa NNE 1.6 km/h 4.8 km/h 49 % 0.0 mm
22:37 5.5 °C -7.1 °C 1019.9 hPa NE 1.9 km/h   40 % 0.0 mm
22:42 5.4 °C -7.2 °C 1019.9 hPa Calm     40 % 0.0 mm
22:45 3.1 °C -6.6 °C 1019.9 hPa Calm     49 % 0.0 mm
22:47 5.3 °C -6.9 °C 1019.9 hPa Calm     41 % 0.0 mm
22:52 5.1 °C -7.1 °C 1020.9 hPa Calm     41 % 0.0 mm
22:55 3.0 °C -6.7 °C 1018.8 hPa NNW 1.6 km/h 3.2 km/h 49 % 0.0 mm
22:57 5.0 °C -7.2 °C 1020.9 hPa Calm     41 % 0.0 mm
23:02 4.8 °C -7.1 °C 1020.9 hPa Calm     42 % 0.0 mm
23:05 3.0 °C -6.4 °C 1018.8 hPa Calm   3.2 km/h 50 % 0.0 mm
23:07 4.7 °C -7.2 °C 1019.9 hPa Calm     42 % 0.0 mm
23:12 4.5 °C -7.3 °C 1019.9 hPa Calm     42 % 0.0 mm
23:15 2.8 °C -6.6 °C 1019.9 hPa NNW 1.6 km/h 3.2 km/h 50 % 0.0 mm
23:17 4.5 °C -7.3 °C 1019.9 hPa WSW 1.9 km/h 2.3 km/h 42 % 0.0 mm
23:22 4.4 °C -7.4 °C 1019.9 hPa WSW 3.9 km/h 3.9 km/h 42 % 0.0 mm
23:25 2.6 °C -6.8 °C 1019.9 hPa Calm   3.2 km/h 50 % 0.0 mm
23:27 4.4 °C -7.4 °C 1019.9 hPa SW 3.7 km/h 3.7 km/h 42 % 0.0 mm
23:32 4.3 °C -7.5 °C 1019.9 hPa SW 3.9 km/h 3.9 km/h 42 % 0.0 mm
23:37 4.3 °C -7.5 °C 1019.9 hPa WSW 3.7 km/h 3.9 km/h 42 % 0.0 mm
23:42 4.2 °C -7.3 °C 1019.9 hPa WSW 1.9 km/h   43 % 0.0 mm
23:45 2.2 °C -7.2 °C 1018.8 hPa West 1.6 km/h 1.6 km/h 50 % 0.0 mm
23:47 4.2 °C -7.3 °C 1019.9 hPa WSW 2.6 km/h   43 % 0.0 mm
23:52 4.3 °C -7.2 °C 1019.9 hPa SW 3.7 km/h 3.7 km/h 43 % 0.0 mm
23:55 2.3 °C -7.1 °C 1019.9 hPa West 1.6 km/h 3.2 km/h 50 % 0.0 mm
23:57 4.3 °C -6.9 °C 1019.9 hPa Calm     44 % 0.0 mm
Meteo Sesrovires
Elogis d' Weather Underground - 3.75 mb

Guio original per  Jim McMurry - jmcmurry@mwt.net Adaptat per a la plantilla per  Wim van der Kuil - Leuven-Template.eu

Trobareu la nostra informacio del temps tambe a:

Weather Underground

AWEKAS